createdAt,value
2022-08-12T00:00:40.248Z,22.36
2022-08-12T00:03:09.739Z,22.34
2022-08-12T00:06:01.740Z,22.30
2022-08-12T00:08:35.915Z,22.21
2022-08-12T00:11:12.234Z,22.22
2022-08-12T00:13:42.407Z,22.21
2022-08-12T00:16:12.385Z,22.24
2022-08-12T00:18:41.873Z,22.20
2022-08-12T00:21:11.681Z,22.07
2022-08-12T00:23:42.284Z,22.08
2022-08-12T00:26:23.315Z,22.10
2022-08-12T00:28:54.685Z,22.15
2022-08-12T00:31:24.193Z,22.21
2022-08-12T00:33:53.289Z,22.23
2022-08-12T00:36:36.191Z,22.20
2022-08-12T00:39:06.157Z,22.10
2022-08-12T00:41:37.246Z,22.02
2022-08-12T00:43:51.540Z,21.93
2022-08-12T00:46:25.844Z,21.87
2022-08-12T00:48:39.882Z,21.86
2022-08-12T00:50:56.182Z,21.90
2022-08-12T00:53:12.867Z,21.93
2022-08-12T00:55:26.178Z,21.92
2022-08-12T00:57:40.399Z,21.88
2022-08-12T00:59:56.509Z,21.78
2022-08-12T01:02:13.257Z,21.69
2022-08-12T01:04:44.614Z,21.62
2022-08-12T01:07:14.978Z,21.65
2022-08-12T01:09:45.269Z,21.66
2022-08-12T01:11:58.732Z,21.59
2022-08-12T01:14:11.906Z,21.59
2022-08-12T01:16:25.691Z,21.58
2022-08-12T01:18:41.509Z,21.55
2022-08-12T01:21:06.886Z,21.59
2022-08-12T01:23:49.875Z,21.64
2022-08-12T01:26:05.765Z,21.67
2022-08-12T01:28:21.126Z,21.73
2022-08-12T01:30:36.905Z,21.74
2022-08-12T01:32:53.475Z,21.75
2022-08-12T01:35:10.233Z,21.76
2022-08-12T01:37:28.039Z,21.77
2022-08-12T01:40:35.754Z,21.77
2022-08-12T01:42:22.804Z,21.76
2022-08-12T01:44:37.485Z,21.76
2022-08-12T01:47:07.644Z,21.72
2022-08-12T01:49:46.724Z,21.68
2022-08-12T01:52:20.770Z,21.59
2022-08-12T01:54:39.857Z,21.52
2022-08-12T01:56:59.582Z,21.49
2022-08-12T01:59:31.398Z,21.49
2022-08-12T02:01:46.863Z,21.43
2022-08-12T02:04:30.013Z,21.35
2022-08-12T02:07:15.826Z,21.32
2022-08-12T02:09:58.415Z,21.31
2022-08-12T02:12:28.664Z,21.23
2022-08-12T02:15:02.060Z,21.08
2022-08-12T02:17:56.185Z,20.94
2022-08-12T02:20:24.950Z,20.85
2022-08-12T02:22:59.010Z,20.83
2022-08-12T02:25:15.805Z,20.75
2022-08-12T02:27:30.683Z,20.67
2022-08-12T02:29:45.941Z,20.58
2022-08-12T02:32:00.662Z,20.50
2022-08-12T02:34:16.374Z,20.43
2022-08-12T02:36:30.572Z,20.42
2022-08-12T02:38:48.402Z,20.40
2022-08-12T02:41:02.697Z,20.39
2022-08-12T02:43:22.819Z,20.41
2022-08-12T02:45:40.439Z,20.41
2022-08-12T02:47:59.056Z,20.40
2022-08-12T02:50:19.020Z,20.40
2022-08-12T02:52:33.261Z,20.38
2022-08-12T02:54:47.598Z,20.39
2022-08-12T02:57:01.672Z,20.35
2022-08-12T02:59:18.393Z,20.25
2022-08-12T03:01:47.629Z,20.13
2022-08-12T03:04:03.737Z,20.00
2022-08-12T03:06:23.844Z,19.88
2022-08-12T03:08:49.145Z,19.77
2022-08-12T03:11:14.397Z,19.66
2022-08-12T03:13:32.196Z,19.60
2022-08-12T03:15:46.054Z,19.56
2022-08-12T03:18:24.113Z,19.54
2022-08-12T03:20:42.116Z,19.51
2022-08-12T03:22:55.588Z,19.50
2022-08-12T03:25:09.698Z,19.48
2022-08-12T03:27:23.307Z,19.47
2022-08-12T03:29:50.275Z,19.46
2022-08-12T03:32:07.627Z,19.45
2022-08-12T03:34:41.406Z,19.44
2022-08-12T03:36:56.679Z,19.42
2022-08-12T03:39:35.956Z,19.41
2022-08-12T03:41:58.358Z,19.38
2022-08-12T03:44:31.539Z,19.36
2022-08-12T03:47:08.392Z,19.35
2022-08-12T03:49:38.943Z,19.32
2022-08-12T03:52:09.532Z,19.27
2022-08-12T03:54:42.488Z,19.19
2022-08-12T03:57:12.716Z,19.09
2022-08-12T03:59:42.272Z,19.00
2022-08-12T04:01:58.611Z,18.93
2022-08-12T04:04:13.073Z,18.87
2022-08-12T04:06:35.543Z,18.81
2022-08-12T04:08:50.129Z,18.75
2022-08-12T04:11:20.563Z,18.69
2022-08-12T04:13:33.833Z,18.62
2022-08-12T04:15:47.783Z,18.56
2022-08-12T04:18:07.603Z,18.51
2022-08-12T04:20:22.412Z,18.46
2022-08-12T04:22:35.959Z,18.41
2022-08-12T04:24:50.657Z,18.38
2022-08-12T04:27:03.976Z,18.34
2022-08-12T04:29:17.115Z,18.30
2022-08-12T04:31:41.181Z,18.26
2022-08-12T04:33:54.985Z,18.24
2022-08-12T04:36:08.355Z,18.18
2022-08-12T04:38:23.523Z,18.10
2022-08-12T04:40:38.691Z,18.03
2022-08-12T04:42:52.496Z,17.98
2022-08-12T04:45:05.498Z,17.92
2022-08-12T04:47:20.517Z,17.84
2022-08-12T04:49:33.821Z,17.76
2022-08-12T04:51:53.413Z,17.68
2022-08-12T04:54:11.247Z,17.61
2022-08-12T04:56:24.480Z,17.52
2022-08-12T04:58:37.530Z,17.43
2022-08-12T05:00:50.606Z,17.37
2022-08-12T05:03:04.150Z,17.32
2022-08-12T05:05:24.345Z,17.28
2022-08-12T05:07:46.585Z,17.23
2022-08-12T05:10:09.943Z,17.17
2022-08-12T05:12:24.685Z,17.12
2022-08-12T05:14:37.914Z,17.09
2022-08-12T05:16:51.022Z,17.03
2022-08-12T05:19:05.070Z,16.98
2022-08-12T05:21:18.653Z,16.93
2022-08-12T05:23:33.259Z,16.90
2022-08-12T05:25:46.792Z,16.87
2022-08-12T05:28:00.685Z,16.86
2022-08-12T05:30:16.969Z,16.84
2022-08-12T05:32:30.363Z,16.83
2022-08-12T05:34:43.573Z,16.82
2022-08-12T05:36:56.718Z,16.81
2022-08-12T05:39:10.144Z,16.81
2022-08-12T05:41:23.632Z,16.80
2022-08-12T05:43:39.176Z,16.79
2022-08-12T05:45:52.731Z,16.78
2022-08-12T05:48:07.584Z,16.75
2022-08-12T05:50:20.833Z,16.72
2022-08-12T05:52:34.035Z,16.69
2022-08-12T05:54:57.564Z,16.68
2022-08-12T05:57:12.793Z,16.65
2022-08-12T05:59:26.178Z,16.63
2022-08-12T06:02:08.819Z,16.63
2022-08-12T06:04:13.356Z,16.60
2022-08-12T06:06:27.843Z,16.58
2022-08-12T06:08:41.161Z,16.57
2022-08-12T06:10:54.497Z,16.57
2022-08-12T06:13:10.331Z,16.56
2022-08-12T06:15:23.948Z,16.55
2022-08-12T06:17:38.757Z,16.53
2022-08-12T06:20:27.696Z,16.51
2022-08-12T06:22:24.884Z,16.52
2022-08-12T06:24:38.659Z,16.51
2022-08-12T06:26:51.789Z,16.50
2022-08-12T06:29:05.284Z,16.49
2022-08-12T06:31:27.010Z,16.50
2022-08-12T06:33:55.389Z,16.52
2022-08-12T06:36:09.873Z,16.55
2022-08-12T06:38:23.935Z,16.56
2022-08-12T06:40:56.229Z,16.57
2022-08-12T06:43:09.708Z,16.58
2022-08-12T06:45:22.882Z,16.59
2022-08-12T06:47:39.487Z,16.61
2022-08-12T06:49:52.646Z,16.63
2022-08-12T06:52:05.688Z,16.62
2022-08-12T06:54:31.958Z,16.63
2022-08-12T06:57:03.665Z,16.64
2022-08-12T06:59:17.717Z,16.67
2022-08-12T07:01:33.294Z,16.66
2022-08-12T07:03:46.540Z,16.67
2022-08-12T07:06:00.873Z,16.67
2022-08-12T07:08:15.227Z,16.68
2022-08-12T07:10:29.100Z,16.69
2022-08-12T07:12:42.699Z,16.69
2022-08-12T07:14:55.833Z,16.71
2022-08-12T07:17:08.963Z,16.74
2022-08-12T07:19:22.193Z,16.76
2022-08-12T07:21:59.972Z,16.79
2022-08-12T07:24:12.179Z,16.78
2022-08-12T07:26:25.117Z,16.77
2022-08-12T07:28:42.660Z,16.77
2022-08-12T07:30:57.200Z,16.77
2022-08-12T07:33:11.663Z,16.76
2022-08-12T07:35:25.109Z,16.75
2022-08-12T07:37:43.079Z,16.73
2022-08-12T07:39:59.836Z,16.70
2022-08-12T07:42:14.075Z,16.70
2022-08-12T07:44:26.995Z,16.68
2022-08-12T07:46:44.520Z,16.65
2022-08-12T07:48:59.374Z,16.63
2022-08-12T07:51:25.452Z,16.60
2022-08-12T07:53:52.018Z,16.55
2022-08-12T07:56:13.733Z,16.51
2022-08-12T07:58:27.466Z,16.46
2022-08-12T08:00:43.053Z,16.42
2022-08-12T08:02:56.543Z,16.41
2022-08-12T08:05:10.689Z,16.38
2022-08-12T08:07:23.838Z,16.37
2022-08-12T08:09:36.774Z,16.36
2022-08-12T08:12:06.143Z,16.34
2022-08-12T08:14:19.389Z,16.32
2022-08-12T08:16:32.299Z,16.31
2022-08-12T08:18:45.675Z,16.31
2022-08-12T08:20:59.604Z,16.31
2022-08-12T08:23:15.432Z,16.32
2022-08-12T08:25:36.126Z,16.34
2022-08-12T08:27:53.289Z,16.34
2022-08-12T08:30:06.499Z,16.34
2022-08-12T08:32:19.581Z,16.35
2022-08-12T08:34:53.730Z,16.33
2022-08-12T08:37:07.566Z,16.32
2022-08-12T08:39:22.799Z,16.31
2022-08-12T08:42:16.942Z,16.29
2022-08-12T08:44:25.739Z,16.27
2022-08-12T08:46:38.875Z,16.26
2022-08-12T08:48:54.526Z,16.28
2022-08-12T08:51:10.776Z,16.29
2022-08-12T08:53:24.251Z,16.29
2022-08-12T08:56:03.298Z,16.29
2022-08-12T08:58:10.778Z,16.27
2022-08-12T09:00:25.173Z,16.26
2022-08-12T09:02:40.434Z,16.26
2022-08-12T09:05:12.088Z,16.28
2022-08-12T09:10:04.199Z,16.32
2022-08-12T09:12:32.959Z,16.34
2022-08-12T09:14:51.217Z,16.36
2022-08-12T09:17:04.746Z,16.38
2022-08-12T09:21:54.291Z,16.39
2022-08-12T09:24:10.422Z,16.40
2022-08-12T09:26:28.428Z,16.40
2022-08-12T09:28:42.253Z,16.42
2022-08-12T09:30:58.941Z,16.43
2022-08-12T09:33:18.636Z,16.43
2022-08-12T09:36:04.536Z,16.43
2022-08-12T09:38:28.473Z,16.42
2022-08-12T09:41:01.938Z,16.42
2022-08-12T09:43:34.722Z,16.43
2022-08-12T09:46:06.150Z,16.44
2022-08-12T09:48:23.661Z,16.43
2022-08-12T09:50:37.008Z,16.44
2022-08-12T09:52:56.522Z,16.43
2022-08-12T09:56:05.696Z,16.41
2022-08-12T09:58:07.723Z,16.40
2022-08-12T10:00:28.369Z,16.37
2022-08-12T10:03:02.060Z,16.37
2022-08-12T10:05:17.884Z,16.37
2022-08-12T10:07:40.242Z,16.38
2022-08-12T10:09:58.748Z,16.40
2022-08-12T10:12:32.934Z,16.43
2022-08-12T10:14:50.010Z,16.44
2022-08-12T10:17:08.800Z,16.45
2022-08-12T10:19:23.937Z,16.45
2022-08-12T10:21:56.644Z,16.45
2022-08-12T10:24:12.124Z,16.45
2022-08-12T10:26:42.154Z,16.46
2022-08-12T10:30:01.667Z,16.46
2022-08-12T10:32:21.632Z,16.49
2022-08-12T10:34:26.649Z,16.51
2022-08-12T10:36:43.182Z,16.53
2022-08-12T10:38:57.679Z,16.56
2022-08-12T10:41:58.309Z,16.59
2022-08-12T10:44:03.515Z,16.60
2022-08-12T10:46:21.021Z,16.61
2022-08-12T10:48:34.800Z,16.62
2022-08-12T10:50:58.339Z,16.63
2022-08-12T10:53:21.469Z,16.64
2022-08-12T10:55:56.532Z,16.65
2022-08-12T10:58:27.461Z,16.66
2022-08-12T11:00:55.570Z,16.65
2022-08-12T11:04:22.961Z,16.63
2022-08-12T11:07:08.462Z,16.62
2022-08-12T11:08:36.445Z,16.61
2022-08-12T11:10:52.629Z,16.60
2022-08-12T11:13:09.334Z,16.60
2022-08-12T11:15:32.901Z,16.60
2022-08-12T11:17:58.395Z,16.62
2022-08-12T11:20:16.893Z,16.63
2022-08-12T11:22:29.967Z,16.63
2022-08-12T11:24:51.644Z,16.64
2022-08-12T11:27:11.071Z,16.64
2022-08-12T11:29:25.962Z,16.62
2022-08-12T11:31:40.988Z,16.62
2022-08-12T11:34:51.186Z,16.60
2022-08-12T11:36:42.819Z,16.61
2022-08-12T11:39:06.649Z,16.64
2022-08-12T11:41:28.094Z,16.65
2022-08-12T11:43:55.919Z,16.67
2022-08-12T11:46:11.473Z,16.66
2022-08-12T11:48:31.613Z,16.67
2022-08-12T11:51:04.797Z,16.68
2022-08-12T11:53:57.095Z,16.70
2022-08-12T11:55:51.603Z,16.70
2022-08-12T11:58:33.794Z,16.69
2022-08-12T12:03:12.325Z,16.71
2022-08-12T12:05:39.576Z,16.71
2022-08-12T12:08:40.568Z,16.70
2022-08-12T12:10:28.115Z,16.71
2022-08-12T12:12:41.419Z,16.70
2022-08-12T12:15:06.842Z,16.72
2022-08-12T12:17:20.019Z,16.71
2022-08-12T12:19:39.696Z,16.72
2022-08-12T12:21:58.572Z,16.75
2022-08-12T12:24:12.119Z,16.76
2022-08-12T12:26:35.715Z,16.77
2022-08-12T12:28:54.538Z,16.78
2022-08-12T12:31:14.987Z,16.79
2022-08-12T12:33:57.040Z,16.78
2022-08-12T12:36:20.418Z,16.77
2022-08-12T12:38:36.164Z,16.74
2022-08-12T12:40:50.714Z,16.70
2022-08-12T12:43:05.349Z,16.68
2022-08-12T12:45:20.450Z,16.68
2022-08-12T12:47:39.189Z,16.68
2022-08-12T12:49:53.577Z,16.67
2022-08-12T12:52:19.614Z,16.68
2022-08-12T12:54:34.072Z,16.68
2022-08-12T12:56:50.881Z,16.70
2022-08-12T12:59:04.620Z,16.71
2022-08-12T13:01:25.427Z,16.70
2022-08-12T13:03:48.899Z,16.69
2022-08-12T13:06:03.574Z,16.69
2022-08-12T13:08:35.852Z,16.67
2022-08-12T13:10:50.274Z,16.67
2022-08-12T13:13:09.603Z,16.66
2022-08-12T13:15:43.258Z,16.65
2022-08-12T13:18:07.735Z,16.62
2022-08-12T13:20:37.714Z,16.61
2022-08-12T13:22:53.308Z,16.59
2022-08-12T13:25:06.543Z,16.57
2022-08-12T13:27:22.972Z,16.56
2022-08-12T13:29:41.587Z,16.56
2022-08-12T13:32:18.762Z,16.55
2022-08-12T13:34:35.731Z,16.55
2022-08-12T13:36:50.323Z,16.53
2022-08-12T13:39:04.446Z,16.53
2022-08-12T13:41:35.134Z,16.52
2022-08-12T13:43:48.145Z,16.50
2022-08-12T13:46:01.191Z,16.51
2022-08-12T13:48:14.948Z,16.52
2022-08-12T13:50:35.212Z,16.54
2022-08-12T13:52:48.249Z,16.55
2022-08-12T13:55:01.357Z,16.56
2022-08-12T13:57:19.592Z,16.56
2022-08-12T13:59:47.859Z,16.58
2022-08-12T14:02:01.618Z,16.59
2022-08-12T14:04:14.578Z,16.59
2022-08-12T14:06:32.167Z,16.60
2022-08-12T14:08:45.487Z,16.59
2022-08-12T14:11:03.101Z,16.59
2022-08-12T14:14:04.741Z,16.59
2022-08-12T14:15:55.605Z,16.61
2022-08-12T14:18:18.389Z,16.63
2022-08-12T14:20:31.617Z,16.64
2022-08-12T14:22:51.438Z,16.66
2022-08-12T14:25:05.092Z,16.68
2022-08-12T14:28:02.737Z,16.68
2022-08-12T14:30:05.450Z,16.69
2022-08-12T14:32:28.322Z,16.69
2022-08-12T14:34:44.240Z,16.67
2022-08-12T14:36:57.720Z,16.67
2022-08-12T14:39:11.124Z,16.67
2022-08-12T14:41:36.653Z,16.68
2022-08-12T14:44:06.244Z,16.71
2022-08-12T14:46:32.938Z,16.73
2022-08-12T14:48:47.456Z,16.76
2022-08-12T14:52:15.979Z,16.80
2022-08-12T14:59:23.227Z,16.95
2022-08-12T15:01:44.606Z,17.01
2022-08-12T15:04:03.494Z,17.04
2022-08-12T15:06:44.021Z,17.06
2022-08-12T15:08:56.372Z,17.13
2022-08-12T15:11:14.798Z,17.19
2022-08-12T15:13:28.670Z,17.23
2022-08-12T15:15:45.791Z,17.28
2022-08-12T15:18:05.344Z,17.36
2022-08-12T15:20:37.232Z,17.45
2022-08-12T15:22:53.604Z,17.54
2022-08-12T15:25:08.093Z,17.58
2022-08-12T15:27:22.354Z,17.61
2022-08-12T15:29:45.034Z,17.60
2022-08-12T15:32:01.883Z,17.59
2022-08-12T15:34:17.631Z,17.60
2022-08-12T15:36:54.262Z,17.61
2022-08-12T15:39:03.835Z,17.59
2022-08-12T15:41:17.688Z,17.61
2022-08-12T15:44:16.074Z,17.65
2022-08-12T15:46:05.976Z,17.69
2022-08-12T15:48:20.430Z,17.75
2022-08-12T15:50:34.638Z,17.83
2022-08-12T15:52:47.779Z,17.88
2022-08-12T15:55:06.508Z,17.93
2022-08-12T15:57:25.774Z,17.99
2022-08-12T16:00:00.731Z,18.05
2022-08-12T16:02:15.778Z,18.11
2022-08-12T16:04:29.221Z,18.17
2022-08-12T16:07:04.371Z,18.22
2022-08-12T16:09:16.782Z,18.26
2022-08-12T16:11:41.239Z,18.25
2022-08-12T16:13:56.960Z,18.22
2022-08-12T16:16:23.409Z,18.21
2022-08-12T16:18:40.414Z,18.21
2022-08-12T16:20:58.168Z,18.21
2022-08-12T16:23:26.584Z,18.25
2022-08-12T16:26:15.105Z,18.34
2022-08-12T16:28:28.191Z,18.42
2022-08-12T16:30:42.342Z,18.46
2022-08-12T16:33:10.253Z,18.50
2022-08-12T16:35:24.003Z,18.55
2022-08-12T16:38:24.240Z,18.61
2022-08-12T16:40:18.729Z,18.70
2022-08-12T16:42:32.142Z,18.74
2022-08-12T16:44:49.596Z,18.74
2022-08-12T16:47:03.093Z,18.79
2022-08-12T16:49:16.337Z,18.85
2022-08-12T16:51:29.650Z,18.90
2022-08-12T16:53:51.025Z,18.92
2022-08-12T16:56:04.933Z,18.93
2022-08-12T16:58:30.238Z,18.97
2022-08-12T17:00:48.182Z,19.00
2022-08-12T17:03:01.466Z,19.05
2022-08-12T17:05:18.716Z,19.12
2022-08-12T17:07:43.252Z,19.15
2022-08-12T17:09:56.971Z,19.17
2022-08-12T17:12:11.654Z,19.20
2022-08-12T17:14:25.528Z,19.17
2022-08-12T17:16:45.767Z,19.12
2022-08-12T17:19:03.396Z,19.04
2022-08-12T17:21:41.350Z,18.95
2022-08-12T17:24:02.870Z,18.96
2022-08-12T17:26:16.024Z,18.98
2022-08-12T17:28:29.363Z,18.98
2022-08-12T17:30:44.231Z,19.04
2022-08-12T17:32:58.279Z,19.13
2022-08-12T17:35:37.543Z,19.23
2022-08-12T17:37:56.698Z,19.29
2022-08-12T17:40:17.603Z,19.30
2022-08-12T17:42:35.550Z,19.29
2022-08-12T17:44:53.811Z,19.31
2022-08-12T17:47:07.580Z,19.31
2022-08-12T17:50:02.154Z,19.34
2022-08-12T17:52:02.573Z,19.36
2022-08-12T17:54:17.711Z,19.39
2022-08-12T17:56:32.436Z,19.47
2022-08-12T17:58:51.291Z,19.48
2022-08-12T18:01:11.805Z,19.46
2022-08-12T18:04:05.840Z,19.41
2022-08-12T18:06:01.695Z,19.40
2022-08-12T18:08:18.913Z,19.40
2022-08-12T18:10:53.090Z,19.41
2022-08-12T18:13:09.702Z,19.40
2022-08-12T18:15:26.921Z,19.37
2022-08-12T18:17:59.994Z,19.32
2022-08-12T18:20:16.400Z,19.23
2022-08-12T18:22:32.962Z,19.17
2022-08-12T18:24:47.806Z,19.14
2022-08-12T18:27:28.075Z,19.12
2022-08-12T18:29:42.318Z,19.14
2022-08-12T18:31:59.158Z,19.22
2022-08-12T18:34:15.375Z,19.30
2022-08-12T18:36:32.006Z,19.38
2022-08-12T18:38:51.225Z,19.42
2022-08-12T18:41:22.847Z,19.50
2022-08-12T18:43:38.994Z,19.56
2022-08-12T18:46:14.470Z,19.63
2022-08-12T18:48:27.746Z,19.66
2022-08-12T18:50:49.969Z,19.66
2022-08-12T18:53:00.568Z,19.68
2022-08-12T18:55:15.875Z,19.71
2022-08-12T18:58:07.234Z,19.71
2022-08-12T19:00:08.015Z,19.64
2022-08-12T19:02:23.205Z,19.62
2022-08-12T19:04:39.232Z,19.66
2022-08-12T19:06:58.971Z,19.68
2022-08-12T19:09:15.870Z,19.69
2022-08-12T19:11:45.425Z,19.72
2022-08-12T19:14:15.974Z,19.80
2022-08-12T19:16:30.664Z,19.85
2022-08-12T19:18:45.840Z,19.86
2022-08-12T19:20:58.870Z,19.93
2022-08-12T19:23:16.750Z,19.95
2022-08-12T19:25:59.693Z,20.01
2022-08-12T19:28:10.229Z,20.03
2022-08-12T19:30:48.025Z,20.10
2022-08-12T19:33:06.507Z,20.19
2022-08-12T19:36:06.597Z,20.26
2022-08-12T19:38:06.578Z,20.30
2022-08-12T19:40:32.626Z,20.29
2022-08-12T19:42:53.292Z,20.23
2022-08-12T19:45:12.218Z,20.16
2022-08-12T19:47:26.192Z,20.16
2022-08-12T19:49:40.108Z,20.22
2022-08-12T19:51:53.652Z,20.27
2022-08-12T19:54:08.020Z,20.35
2022-08-12T19:56:21.227Z,20.41
2022-08-12T19:58:38.530Z,20.48
2022-08-12T20:00:53.583Z,20.60
2022-08-12T20:03:08.217Z,20.68
2022-08-12T20:06:05.633Z,20.83
2022-08-12T20:08:29.326Z,20.92
2022-08-12T20:10:50.991Z,21.03
2022-08-12T20:13:18.200Z,21.17
2022-08-12T20:15:45.122Z,21.34
2022-08-12T20:17:58.829Z,21.45
2022-08-12T20:20:19.574Z,21.53
2022-08-12T20:22:34.559Z,21.53
2022-08-12T20:24:48.349Z,21.50
2022-08-12T20:27:02.506Z,21.51
2022-08-12T20:29:16.978Z,21.51
2022-08-12T20:31:31.719Z,21.41
2022-08-12T20:33:50.629Z,21.35
2022-08-12T20:36:41.346Z,21.33
2022-08-12T20:38:46.565Z,21.14
2022-08-12T20:40:59.794Z,20.95
2022-08-12T20:43:14.236Z,20.82
2022-08-12T20:45:44.752Z,20.73
2022-08-12T20:48:08.569Z,20.63
2022-08-12T20:50:22.056Z,20.59
2022-08-12T20:52:45.151Z,20.59
2022-08-12T20:54:58.449Z,20.62
2022-08-12T20:57:12.291Z,20.60
2022-08-12T20:59:31.790Z,20.61
2022-08-12T21:01:48.322Z,20.64
2022-08-12T21:04:18.698Z,20.66
2022-08-12T21:06:48.138Z,20.70
2022-08-12T21:09:02.663Z,20.80
2022-08-12T21:11:16.260Z,20.89
2022-08-12T21:13:39.213Z,21.00
2022-08-12T21:16:00.197Z,21.09
2022-08-12T21:18:27.190Z,21.19
2022-08-12T21:20:41.963Z,21.21
2022-08-12T21:22:55.001Z,21.21
2022-08-12T21:25:16.858Z,21.20
2022-08-12T21:27:59.107Z,21.20
2022-08-12T21:30:07.446Z,21.29
2022-08-12T21:32:39.883Z,21.33
2022-08-12T21:34:53.666Z,21.24
2022-08-12T21:37:13.271Z,21.25
2022-08-12T21:39:37.820Z,21.35
2022-08-12T21:41:52.056Z,21.47
2022-08-12T21:44:07.396Z,21.41
2022-08-12T21:46:39.990Z,21.35
2022-08-12T21:48:57.517Z,21.39
2022-08-12T21:51:23.389Z,21.52
2022-08-12T21:54:06.370Z,21.68
2022-08-12T21:56:10.620Z,21.85
2022-08-12T21:58:44.022Z,22.00
2022-08-12T22:00:58.338Z,22.04
2022-08-12T22:04:02.781Z,22.04
2022-08-12T22:06:30.453Z,22.23
2022-08-12T22:08:56.817Z,22.35
2022-08-12T22:11:41.760Z,22.43
2022-08-12T22:14:02.463Z,22.53
2022-08-12T22:16:22.332Z,22.63
2022-08-12T22:18:50.237Z,22.71
2022-08-12T22:21:04.025Z,22.66
2022-08-12T22:23:21.786Z,22.66
2022-08-12T22:25:50.290Z,22.64
2022-08-12T22:28:24.527Z,22.58
2022-08-12T22:30:56.575Z,22.46
2022-08-12T22:33:15.700Z,22.37
2022-08-12T22:35:56.322Z,22.31
2022-08-12T22:38:18.108Z,22.35
2022-08-12T22:40:32.585Z,22.45
2022-08-12T22:43:05.740Z,22.55
2022-08-12T22:45:35.391Z,22.65
2022-08-12T22:48:08.591Z,22.71
2022-08-12T22:50:26.834Z,22.68
2022-08-12T22:55:11.649Z,22.54
2022-08-12T22:57:49.546Z,22.53
2022-08-12T23:00:02.520Z,22.59
2022-08-12T23:02:28.874Z,22.66
2022-08-12T23:04:42.918Z,22.69
2022-08-12T23:06:58.404Z,22.77
2022-08-12T23:09:18.973Z,22.84
2022-08-12T23:11:40.838Z,22.89
2022-08-12T23:13:57.973Z,22.91
2022-08-12T23:16:28.179Z,22.83
2022-08-12T23:18:42.130Z,22.70
2022-08-12T23:20:55.166Z,22.67
2022-08-12T23:23:10.567Z,22.66
2022-08-12T23:25:32.680Z,22.66
2022-08-12T23:28:30.126Z,22.61
2022-08-12T23:30:44.639Z,22.50
2022-08-12T23:33:00.017Z,22.43
2022-08-12T23:35:18.604Z,22.38
2022-08-12T23:37:46.550Z,22.38
2022-08-12T23:40:13.498Z,22.41
2022-08-12T23:42:31.265Z,22.44
2022-08-12T23:44:44.476Z,22.47
2022-08-12T23:47:01.627Z,22.53
2022-08-12T23:49:55.828Z,22.62
2022-08-12T23:51:49.580Z,22.68
2022-08-12T23:54:04.990Z,22.70
2022-08-12T23:56:19.377Z,22.75
2022-08-12T23:58:34.116Z,22.77
